Time;durP1;ratioP1;P1;durP2;ratioP2;P2;SDS_P1;SDS_P2;PMS_P1;PMS_P2;Temp;Humidity;BMP_temperature;BMP_pressure;BME280_temperature;BME280_humidity;BME280_pressure;Samples;Min_cycle;Max_cycle;Signal;HPM_P1;HPM_P2
2023/06/15 00:00:58;;;;;;;4.10;3.80;;;19.00;69.20;;;;;;6116786;23;20457;-75
2023/06/15 00:03:25;;;;;;;4.10;3.80;;;19.10;69.20;;;;;;6118645;23;20418;-75
2023/06/15 00:05:53;;;;;;;4.50;4.13;;;19.00;69.20;;;;;;6111458;23;21006;-76
2023/06/15 00:08:20;;;;;;;4.37;3.97;;;19.00;69.30;;;;;;6105943;23;20446;-75
2023/06/15 00:10:47;;;;;;;4.53;4.20;;;19.00;69.60;;;;;;6115668;23;20438;-75
2023/06/15 00:13:14;;;;;;;3.80;3.60;;;19.00;69.30;;;;;;6117092;23;20470;-75
2023/06/15 00:15:41;;;;;;;4.30;4.00;;;18.90;69.30;;;;;;6118309;23;20422;-75
2023/06/15 00:18:11;;;;;;;4.23;3.93;;;18.90;69.60;;;;;;6115134;23;20433;-75
2023/06/15 00:20:39;;;;;;;4.23;3.93;;;18.80;69.60;;;;;;6110654;23;20458;-75
2023/06/15 00:23:08;;;;;;;4.07;3.73;;;18.90;70.00;;;;;;6113549;23;22854;-75
2023/06/15 00:25:35;;;;;;;4.90;4.07;;;18.80;70.00;;;;;;6114843;23;20512;-75
2023/06/15 00:28:02;;;;;;;4.87;4.40;;;18.80;70.20;;;;;;6108441;23;20487;-75
2023/06/15 00:30:29;;;;;;;4.10;3.80;;;18.80;70.20;;;;;;6104530;23;20532;-75
2023/06/15 00:32:57;;;;;;;4.00;3.70;;;18.70;70.20;;;;;;6113600;23;20461;-75
2023/06/15 00:35:25;;;;;;;4.33;4.03;;;18.70;70.10;;;;;;6105644;23;20465;-75
2023/06/15 00:37:52;;;;;;;4.27;3.87;;;18.70;70.30;;;;;;6100743;23;20462;-75
2023/06/15 00:40:19;;;;;;;4.37;4.07;;;18.70;70.40;;;;;;6110815;23;20434;-75
2023/06/15 00:42:46;;;;;;;4.10;3.80;;;18.70;70.70;;;;;;6114915;23;20732;-75
2023/06/15 00:45:14;;;;;;;4.40;4.10;;;18.70;70.70;;;;;;6112564;23;20437;-75
2023/06/15 00:47:43;;;;;;;5.00;4.57;;;18.70;70.70;;;;;;6101890;23;20810;-75
2023/06/15 00:50:14;;;;;;;4.40;4.10;;;18.60;70.70;;;;;;6113494;23;20781;-75
2023/06/15 00:52:43;;;;;;;4.30;3.90;;;18.60;70.90;;;;;;6116488;23;20469;-75
2023/06/15 00:55:13;;;;;;;4.60;4.20;;;18.50;70.90;;;;;;6107301;23;21010;-75
2023/06/15 00:57:44;;;;;;;4.20;3.90;;;18.50;71.20;;;;;;6112910;23;20469;-75
2023/06/15 01:00:14;;;;;;;4.37;3.97;;;18.50;71.10;;;;;;6111247;23;20434;-75
2023/06/15 01:02:41;;;;;;;5.37;4.50;;;18.50;71.40;;;;;;6104398;23;20466;-75
2023/06/15 01:05:10;;;;;;;4.70;4.20;;;18.40;71.60;;;;;;6109576;23;20441;-75
2023/06/15 01:07:40;;;;;;;4.10;3.80;;;18.40;71.80;;;;;;6116466;23;20459;-75
2023/06/15 01:10:13;;;;;;;4.10;3.80;;;18.40;72.00;;;;;;6107578;23;20430;-75
2023/06/15 01:12:44;;;;;;;3.90;3.60;;;18.30;71.90;;;;;;6110707;23;20523;-75
2023/06/15 01:15:11;;;;;;;4.87;4.57;;;18.30;71.90;;;;;;6117616;23;20430;-75
2023/06/15 01:17:45;;;;;;;3.57;3.37;;;18.20;72.00;;;;;;6110354;23;20823;-74
2023/06/15 01:20:18;;;;;;;4.50;4.20;;;18.20;72.40;;;;;;6105080;23;20435;-74
2023/06/15 01:22:57;;;;;;;4.20;3.90;;;18.10;72.70;;;;;;6118623;23;20548;-74
2023/06/15 01:25:33;;;;;;;4.23;3.97;;;18.10;73.10;;;;;;6104523;23;20460;-74
2023/06/15 01:28:04;;;;;;;4.70;4.30;;;18.00;73.40;;;;;;6114000;23;20437;-74
2023/06/15 01:30:34;;;;;;;4.47;4.07;;;17.90;73.60;;;;;;6123397;23;20501;-74
2023/06/15 01:33:01;;;;;;;4.93;4.63;;;17.90;74.00;;;;;;6119593;23;20510;-75
2023/06/15 01:35:28;;;;;;;4.50;4.20;;;17.80;74.20;;;;;;6107849;23;20435;-74
2023/06/15 01:37:55;;;;;;;4.53;4.20;;;17.70;74.40;;;;;;6110091;23;20528;-74
2023/06/15 01:40:22;;;;;;;4.10;3.80;;;17.70;74.60;;;;;;6116109;23;20434;-74
2023/06/15 01:42:50;;;;;;;5.10;4.70;;;17.70;74.90;;;;;;6118875;23;20985;-75
2023/06/15 01:45:21;;;;;;;5.07;4.67;;;17.60;74.90;;;;;;6110879;23;20437;-74
2023/06/15 01:47:49;;;;;;;4.47;4.03;;;17.60;75.30;;;;;;6116836;23;20433;-74
2023/06/15 01:50:18;;;;;;;4.73;4.33;;;17.60;75.40;;;;;;6116466;23;20512;-74
2023/06/15 01:52:46;;;;;;;5.40;4.23;;;17.50;75.50;;;;;;6113165;23;20433;-74
2023/06/15 01:55:13;;;;;;;5.10;4.60;;;17.50;75.80;;;;;;6109688;23;20441;-74
2023/06/15 01:57:41;;;;;;;4.70;4.30;;;17.50;76.00;;;;;;6113875;23;20453;-74
2023/06/15 02:00:10;;;;;;;5.53;4.17;;;17.50;76.60;;;;;;6114106;23;20446;-75
2023/06/15 02:02:39;;;;;;;4.70;4.27;;;17.50;77.00;;;;;;6107283;23;20485;-74
2023/06/15 02:05:07;;;;;;;4.90;4.60;;;17.40;77.20;;;;;;6113883;23;20431;-74
2023/06/15 02:07:35;;;;;;;4.43;4.13;;;17.40;77.60;;;;;;6118225;23;20524;-74
2023/06/15 02:10:02;;;;;;;4.33;3.93;;;17.40;77.60;;;;;;6112731;23;20436;-74
2023/06/15 02:12:29;;;;;;;4.90;4.13;;;17.30;78.10;;;;;;6107468;23;20441;-75
2023/06/15 02:14:57;;;;;;;4.60;4.30;;;17.30;78.40;;;;;;6111746;23;20521;-74
2023/06/15 02:17:24;;;;;;;4.70;4.30;;;17.30;78.50;;;;;;6109532;23;20461;-74
2023/06/15 02:19:53;;;;;;;4.47;4.17;;;17.30;78.80;;;;;;6115406;23;20827;-74
2023/06/15 02:22:20;;;;;;;4.50;4.10;;;17.20;78.90;;;;;;6110771;23;20552;-74
2023/06/15 02:24:47;;;;;;;4.57;4.20;;;17.20;79.00;;;;;;6109650;23;20440;-74
2023/06/15 02:27:14;;;;;;;4.47;4.17;;;17.20;79.30;;;;;;6110678;23;20454;-75
2023/06/15 02:29:42;;;;;;;4.87;4.47;;;17.20;79.80;;;;;;6112866;23;21169;-74
2023/06/15 02:32:09;;;;;;;4.80;4.50;;;17.10;80.10;;;;;;6110073;23;20431;-74
2023/06/15 02:34:37;;;;;;;4.23;3.83;;;17.10;80.40;;;;;;6111118;23;20442;-74
2023/06/15 02:37:13;;;;;;;4.60;4.30;;;17.10;80.70;;;;;;6107056;23;20544;-74
2023/06/15 02:39:40;;;;;;;5.23;4.37;;;17.00;80.40;;;;;;6105277;23;20561;-75
2023/06/15 02:42:10;;;;;;;4.90;4.60;;;17.00;80.90;;;;;;6110757;23;20493;-74
2023/06/15 02:44:36;;;;;;;4.73;4.43;;;16.90;81.00;;;;;;6106591;23;20433;-74
2023/06/15 02:47:04;;;;;;;5.03;4.73;;;16.90;81.20;;;;;;6107078;23;20457;-75
2023/06/15 02:49:31;;;;;;;4.63;4.33;;;16.90;81.50;;;;;;6107991;23;20461;-74
2023/06/15 02:51:58;;;;;;;4.90;4.50;;;16.90;81.70;;;;;;6107905;23;20429;-74
2023/06/15 02:54:27;;;;;;;5.10;4.70;;;16.80;82.80;;;;;;6103325;23;20516;-75
2023/06/15 02:56:55;;;;;;;4.77;4.37;;;16.80;82.40;;;;;;6111413;23;20520;-75
2023/06/15 02:59:25;;;;;;;4.40;4.00;;;16.80;82.80;;;;;;6107609;23;20513;-75
2023/06/15 03:01:52;;;;;;;4.87;4.47;;;16.80;83.30;;;;;;6105316;23;20511;-75
2023/06/15 03:04:21;;;;;;;5.50;5.00;;;16.70;83.70;;;;;;6116087;23;20439;-74
2023/06/15 03:06:49;;;;;;;5.57;5.07;;;16.70;84.00;;;;;;6106369;23;20458;-75
2023/06/15 03:09:17;;;;;;;5.30;5.00;;;16.70;84.30;;;;;;6111523;23;20442;-75
2023/06/15 03:11:46;;;;;;;4.80;4.50;;;16.70;84.80;;;;;;6108661;23;21028;-74
2023/06/15 03:14:13;;;;;;;5.07;4.67;;;16.70;85.10;;;;;;6106470;23;20430;-74
2023/06/15 03:16:41;;;;;;;4.90;4.50;;;16.60;85.40;;;;;;6111849;23;20481;-74
2023/06/15 03:19:08;;;;;;;5.17;4.77;;;16.60;85.80;;;;;;6103670;23;20884;-74
2023/06/15 03:21:35;;;;;;;5.57;5.10;;;16.60;85.80;;;;;;6103912;23;20449;-75
2023/06/15 03:24:01;;;;;;;5.90;5.10;;;16.60;86.20;;;;;;6104514;23;20461;-75
2023/06/15 03:26:29;;;;;;;4.73;4.43;;;16.70;86.50;;;;;;6109263;23;20492;-75
2023/06/15 03:28:57;;;;;;;5.03;4.73;;;16.60;86.50;;;;;;6104878;23;20527;-74
2023/06/15 03:31:28;;;;;;;4.70;4.30;;;16.60;86.70;;;;;;6100634;23;20780;-74
2023/06/15 03:33:55;;;;;;;5.60;5.20;;;16.60;87.10;;;;;;6104505;23;20438;-75
2023/06/15 03:36:24;;;;;;;5.20;4.73;;;16.70;87.70;;;;;;6108448;23;20458;-70
2023/06/15 03:38:51;;;;;;;5.13;4.73;;;16.70;87.80;;;;;;6099103;23;20791;-70
2023/06/15 03:41:18;;;;;;;5.33;5.03;;;16.70;87.70;;;;;;6101524;23;20446;-71
2023/06/15 03:43:45;;;;;;;5.03;4.60;;;16.80;87.70;;;;;;6097874;23;20531;-70
2023/06/15 03:46:13;;;;;;;4.97;4.47;;;16.90;87.20;;;;;;6105382;23;20457;-70
2023/06/15 03:48:41;;;;;;;6.17;4.90;;;17.00;86.70;;;;;;6104844;23;20437;-71
2023/06/15 03:51:07;;;;;;;4.63;4.30;;;17.10;86.50;;;;;;6105914;23;20433;-71
2023/06/15 03:53:35;;;;;;;5.20;4.80;;;17.20;86.10;;;;;;6102822;23;20517;-71
2023/06/15 03:56:02;;;;;;;4.77;4.43;;;17.30;85.90;;;;;;6108910;23;20463;-71
2023/06/15 03:58:29;;;;;;;6.37;5.03;;;17.50;85.60;;;;;;6110414;23;20434;-75
2023/06/15 04:00:56;;;;;;;5.03;4.60;;;17.60;85.30;;;;;;6104232;23;20466;-75
2023/06/15 04:03:26;;;;;;;4.93;4.60;;;17.70;84.70;;;;;;6111378;23;20470;-75
2023/06/15 04:05:54;;;;;;;5.00;4.70;;;17.90;84.00;;;;;;6103434;23;21038;-75
2023/06/15 04:08:21;;;;;;;5.20;4.70;;;17.90;83.60;;;;;;6108955;23;20437;-74
2023/06/15 04:10:48;;;;;;;4.80;4.50;;;18.10;83.70;;;;;;6100623;23;20516;-75
2023/06/15 04:13:15;;;;;;;4.40;4.03;;;18.20;83.70;;;;;;6109401;23;20520;-75
2023/06/15 04:15:42;;;;;;;5.13;4.73;;;18.00;83.30;;;;;;6108421;23;20884;-74
2023/06/15 04:18:09;;;;;;;4.63;4.23;;;18.00;83.00;;;;;;6111441;23;20465;-76
2023/06/15 04:20:38;;;;;;;4.30;4.00;;;18.00;83.40;;;;;;6117759;23;20436;-74
2023/06/15 04:23:05;;;;;;;5.13;4.60;;;18.00;83.70;;;;;;6115174;23;20473;-74
2023/06/15 04:25:35;;;;;;;5.60;5.07;;;18.00;83.40;;;;;;6115756;23;20465;-74
2023/06/15 04:28:03;;;;;;;4.80;4.50;;;18.00;83.40;;;;;;6114463;23;20492;-74
2023/06/15 04:30:31;;;;;;;4.90;4.60;;;18.00;83.50;;;;;;6102841;23;20452;-74
2023/06/15 04:32:59;;;;;;;4.53;4.23;;;18.00;83.70;;;;;;6108451;23;21015;-75
2023/06/15 04:35:28;;;;;;;4.80;4.50;;;18.00;84.00;;;;;;6109768;23;20488;-77
2023/06/15 04:37:59;;;;;;;5.17;4.77;;;18.10;84.30;;;;;;6102965;23;20477;-74
2023/06/15 04:40:26;;;;;;;4.50;4.20;;;18.00;84.10;;;;;;6103766;23;20520;-73
2023/06/15 04:42:53;;;;;;;5.53;4.80;;;18.10;84.30;;;;;;6111972;23;20461;-72
2023/06/15 04:45:20;;;;;;;4.60;4.30;;;18.10;84.30;;;;;;6116191;23;20442;-72
2023/06/15 04:47:48;;;;;;;4.63;4.23;;;18.10;84.40;;;;;;6105255;23;20575;-72
2023/06/15 04:50:15;;;;;;;4.43;4.13;;;18.10;84.70;;;;;;6110058;23;20495;-72
2023/06/15 04:52:42;;;;;;;4.57;4.27;;;18.10;85.00;;;;;;6108285;23;20441;-73
2023/06/15 04:55:11;;;;;;;5.10;4.80;;;18.10;85.30;;;;;;6100020;23;20560;-78
2023/06/15 04:57:38;;;;;;;4.30;4.00;;;18.10;85.50;;;;;;6104700;23;20436;-75
2023/06/15 05:00:08;;;;;;;5.23;4.47;;;18.10;85.80;;;;;;6111678;23;20472;-75
2023/06/15 05:02:36;;;;;;;5.00;4.60;;;18.10;86.00;;;;;;6116391;23;20485;-75
2023/06/15 05:05:03;;;;;;;5.20;4.70;;;18.20;86.50;;;;;;6117977;23;20512;-76
2023/06/15 05:07:30;;;;;;;4.27;4.07;;;18.10;86.50;;;;;;6117865;23;22795;-74
2023/06/15 05:09:57;;;;;;;5.00;4.50;;;18.10;86.30;;;;;;6106914;23;20432;-74
2023/06/15 05:12:25;;;;;;;4.83;4.50;;;18.10;86.50;;;;;;6111868;23;20968;-75
2023/06/15 05:14:52;;;;;;;5.77;5.30;;;18.10;87.00;;;;;;6105196;23;20513;-74
2023/06/15 05:17:19;;;;;;;5.20;4.80;;;18.20;87.00;;;;;;6119755;23;20517;-75
2023/06/15 05:19:46;;;;;;;5.10;4.70;;;18.20;86.90;;;;;;6119166;23;20438;-74
2023/06/15 05:22:13;;;;;;;4.50;4.20;;;18.20;86.20;;;;;;6112020;23;21345;-74
2023/06/15 05:24:40;;;;;;;5.00;4.60;;;18.30;85.30;;;;;;6117806;23;20528;-75
2023/06/15 05:27:08;;;;;;;5.03;4.63;;;18.30;85.00;;;;;;6113344;23;20847;-75
2023/06/15 05:29:37;;;;;;;5.03;4.70;;;18.40;85.40;;;;;;6115624;23;20425;-75
2023/06/15 05:32:05;;;;;;;5.07;4.67;;;18.40;85.30;;;;;;6113534;23;20521;-75
2023/06/15 05:34:32;;;;;;;4.90;4.60;;;18.40;85.00;;;;;;6106628;23;20469;-74
2023/06/15 05:36:59;;;;;;;5.17;4.77;;;18.50;85.00;;;;;;6101438;23;20566;-75
2023/06/15 05:39:26;;;;;;;5.27;4.77;;;18.60;85.20;;;;;;6099824;23;20790;-75
2023/06/15 05:41:53;;;;;;;5.17;4.77;;;18.80;85.60;;;;;;6091711;23;20430;-75
2023/06/15 05:44:20;;;;;;;6.40;5.80;;;18.70;85.50;;;;;;6106399;23;20430;-75
2023/06/15 05:46:50;;;;;;;5.53;5.03;;;18.70;85.60;;;;;;6102685;23;20470;-74
2023/06/15 05:49:17;;;;;;;5.47;5.03;;;18.80;85.20;;;;;;6107698;23;20434;-75
2023/06/15 05:51:45;;;;;;;6.00;5.50;;;18.80;85.10;;;;;;6115827;23;20433;-74
2023/06/15 05:54:12;;;;;;;5.37;4.97;;;18.80;84.50;;;;;;6116190;23;20763;-75
2023/06/15 05:56:40;;;;;;;6.20;5.70;;;18.80;84.90;;;;;;6115786;23;20464;-75
2023/06/15 05:59:08;;;;;;;5.60;5.20;;;18.80;84.90;;;;;;6112202;23;20509;-74
2023/06/15 06:01:35;;;;;;;5.83;5.43;;;18.70;85.10;;;;;;6118132;23;20500;-74
2023/06/15 06:04:05;;;;;;;6.03;5.63;;;18.70;85.20;;;;;;6113765;23;20481;-75
2023/06/15 06:06:33;;;;;;;5.60;5.03;;;18.70;86.50;;;;;;6110829;23;20463;-75
2023/06/15 06:09:00;;;;;;;6.07;5.57;;;18.80;86.40;;;;;;6120105;23;20430;-75
2023/06/15 06:11:28;;;;;;;7.20;5.67;;;18.90;86.70;;;;;;6116478;23;20425;-75
2023/06/15 06:13:56;;;;;;;5.60;5.20;;;19.00;86.80;;;;;;6110691;23;20438;-75
2023/06/15 06:16:24;;;;;;;5.47;5.07;;;19.00;85.50;;;;;;6109359;23;20465;-75
2023/06/15 06:18:51;;;;;;;5.60;5.20;;;19.00;84.30;;;;;;6111744;23;20437;-75
2023/06/15 06:21:20;;;;;;;5.37;4.97;;;19.10;84.70;;;;;;6109824;23;20442;-75
2023/06/15 06:23:49;;;;;;;6.70;5.47;;;19.20;84.30;;;;;;6110773;23;20497;-76
2023/06/15 06:26:17;;;;;;;6.30;5.13;;;19.20;84.30;;;;;;6113962;23;20459;-76
2023/06/15 06:28:45;;;;;;;5.80;5.40;;;19.40;84.30;;;;;;6114330;23;20441;-76
2023/06/15 06:31:13;;;;;;;5.50;5.00;;;19.40;83.30;;;;;;6104792;23;20436;-77
2023/06/15 06:33:41;;;;;;;6.10;5.37;;;19.40;82.80;;;;;;6107856;23;20443;-77
2023/06/15 06:36:09;;;;;;;8.37;5.27;;;19.30;83.10;;;;;;6112568;23;21085;-77
2023/06/15 06:38:38;;;;;;;4.93;4.53;;;19.30;83.30;;;;;;6105135;23;20564;-76
2023/06/15 06:41:05;;;;;;;4.87;4.57;;;19.40;81.90;;;;;;6121507;23;21370;-77
2023/06/15 06:43:33;;;;;;;5.40;4.30;;;19.40;82.30;;;;;;6114306;23;20461;-77
2023/06/15 06:46:00;;;;;;;4.97;4.57;;;19.60;82.20;;;;;;6114835;23;20447;-77
2023/06/15 06:48:29;;;;;;;5.60;5.20;;;19.70;81.00;;;;;;6119096;23;20694;-77
2023/06/15 06:50:57;;;;;;;4.83;4.43;;;19.80;80.50;;;;;;6118399;23;20526;-76
2023/06/15 06:53:24;;;;;;;5.20;4.70;;;20.00;80.70;;;;;;6112762;23;20526;-76
2023/06/15 06:55:53;;;;;;;5.30;4.80;;;20.10;80.50;;;;;;6118586;23;20455;-76
2023/06/15 06:58:20;;;;;;;5.50;5.10;;;20.20;80.70;;;;;;6119745;23;20959;-76
2023/06/15 07:00:47;;;;;;;6.00;5.50;;;20.40;80.70;;;;;;6114374;23;20994;-76
2023/06/15 07:03:14;;;;;;;5.23;4.83;;;20.40;80.10;;;;;;6117301;23;20958;-76
2023/06/15 07:05:41;;;;;;;6.10;5.70;;;20.50;80.30;;;;;;6118761;23;20519;-76
2023/06/15 07:08:10;;;;;;;7.60;5.47;;;20.50;81.10;;;;;;6110984;23;20547;-76
2023/06/15 07:10:37;;;;;;;5.50;5.10;;;20.60;80.60;;;;;;6118623;23;20922;-76
2023/06/15 07:13:06;;;;;;;5.43;5.00;;;20.70;80.60;;;;;;6118627;23;20440;-76
2023/06/15 07:15:33;;;;;;;5.23;4.83;;;20.90;81.30;;;;;;6117432;23;20468;-76
2023/06/15 07:18:00;;;;;;;5.50;5.10;;;21.00;79.10;;;;;;6111761;23;21008;-76
2023/06/15 07:20:27;;;;;;;5.40;4.80;;;21.10;79.70;;;;;;6115766;23;20967;-76
2023/06/15 07:22:54;;;;;;;5.23;4.83;;;21.20;79.60;;;;;;6118758;23;20468;-76
2023/06/15 07:25:21;;;;;;;6.63;5.87;;;21.30;79.00;;;;;;6119065;23;20953;-76
2023/06/15 07:27:48;;;;;;;6.20;5.70;;;21.40;79.10;;;;;;6121873;23;20436;-76
2023/06/15 07:30:17;;;;;;;8.83;5.33;;;21.50;78.90;;;;;;6105079;23;20926;-75
2023/06/15 07:32:44;;;;;;;5.50;5.10;;;21.50;78.60;;;;;;6118145;23;20993;-77
2023/06/15 07:35:11;;;;;;;6.03;5.53;;;21.50;79.10;;;;;;6107543;23;20810;-77
2023/06/15 07:37:38;;;;;;;6.20;4.90;;;21.70;78.40;;;;;;6118373;23;20525;-77
2023/06/15 07:40:06;;;;;;;5.27;4.87;;;21.80;77.70;;;;;;6127312;23;20436;-77
2023/06/15 07:42:33;;;;;;;4.73;4.33;;;22.00;78.80;;;;;;6120815;23;20440;-77
2023/06/15 07:45:00;;;;;;;5.20;4.80;;;22.30;77.80;;;;;;6117886;23;20441;-78
2023/06/15 07:47:29;;;;;;;6.00;5.50;;;22.70;77.10;;;;;;6117095;23;20827;-76
2023/06/15 07:49:56;;;;;;;6.70;5.50;;;22.90;73.30;;;;;;6119185;23;20979;-78
2023/06/15 07:52:23;;;;;;;5.10;4.60;;;23.00;72.50;;;;;;6111337;23;20427;-77
2023/06/15 07:54:50;;;;;;;4.90;4.60;;;23.10;73.10;;;;;;6120212;23;20450;-76
2023/06/15 07:57:17;;;;;;;13.83;6.17;;;23.10;72.20;;;;;;6117101;23;20461;-77
2023/06/15 07:59:44;;;;;;;11.40;5.80;;;23.10;72.00;;;;;;6121156;23;20433;-79
2023/06/15 08:02:11;;;;;;;6.87;4.30;;;23.10;73.20;;;;;;6118304;23;20520;-77
2023/06/15 08:04:39;;;;;;;5.30;4.80;;;23.40;73.40;;;;;;6114189;23;20470;-77
2023/06/15 08:07:07;;;;;;;5.60;5.10;;;23.60;71.80;;;;;;6118799;23;20435;-77
2023/06/15 08:09:34;;;;;;;5.97;5.33;;;23.90;71.50;;;;;;6119619;23;20833;-71
2023/06/15 08:12:02;;;;;;;5.17;4.67;;;24.10;71.30;;;;;;6120400;23;20433;-72
2023/06/15 08:14:29;;;;;;;4.77;4.47;;;24.20;70.90;;;;;;6112371;23;20774;-73
2023/06/15 08:16:56;;;;;;;5.40;4.93;;;24.60;70.90;;;;;;6117364;23;20433;-73
2023/06/15 08:19:24;;;;;;;6.83;4.93;;;25.00;69.70;;;;;;6098281;23;20437;-74
2023/06/15 08:21:52;;;;;;;5.17;4.80;;;25.30;68.80;;;;;;6114229;23;20436;-74
2023/06/15 08:24:19;;;;;;;4.73;4.33;;;25.70;69.00;;;;;;6120098;23;20820;-76
2023/06/15 08:26:48;;;;;;;4.60;4.30;;;26.10;68.60;;;;;;6118639;23;20453;-78
2023/06/15 08:29:15;;;;;;;5.30;4.90;;;26.40;65.20;;;;;;6122166;23;20986;-80
2023/06/15 08:31:42;;;;;;;5.30;4.87;;;26.50;64.50;;;;;;6119012;23;20432;-78
2023/06/15 08:34:09;;;;;;;5.00;4.60;;;26.50;65.50;;;;;;6120788;23;20425;-78
2023/06/15 08:36:37;;;;;;;5.10;4.80;;;26.70;64.70;;;;;;6111561;23;20467;-78
2023/06/15 08:39:05;;;;;;;4.57;4.27;;;26.80;64.60;;;;;;6118420;23;20429;-77
2023/06/15 08:41:34;;;;;;;4.73;4.43;;;26.80;63.70;;;;;;6111573;23;20441;-77
2023/06/15 08:44:03;;;;;;;5.83;4.90;;;26.90;64.00;;;;;;6120516;23;20933;-72
2023/06/15 08:46:30;;;;;;;4.97;4.57;;;27.10;62.80;;;;;;6119988;23;20771;-80
2023/06/15 08:48:59;;;;;;;4.40;4.00;;;27.20;61.90;;;;;;6120564;23;20468;-81
2023/06/15 08:51:26;;;;;;;4.70;4.40;;;27.30;61.80;;;;;;6112539;23;20939;-81
2023/06/15 08:53:55;;;;;;;5.07;4.67;;;27.60;61.40;;;;;;6120350;23;20502;-77
2023/06/15 08:56:24;;;;;;;5.10;4.70;;;27.90;61.20;;;;;;6110624;23;20457;-77
2023/06/15 08:58:51;;;;;;;6.63;4.97;;;28.00;59.90;;;;;;6120206;23;20437;-77
2023/06/15 09:01:22;;;;;;;5.10;4.60;;;27.70;59.80;;;;;;6118315;23;20453;-77
2023/06/15 09:03:52;;;;;;;5.40;4.90;;;27.60;61.20;;;;;;6119600;23;20484;-73
2023/06/15 09:06:19;;;;;;;5.90;4.43;;;27.80;60.60;;;;;;6119885;23;20520;-79
2023/06/15 09:08:46;;;;;;;5.53;4.73;;;27.90;60.20;;;;;;6119492;23;20444;-91
2023/06/15 09:11:14;;;;;;;5.13;4.70;;;28.10;60.50;;;;;;6103668;23;20492;-83
2023/06/15 09:13:43;;;;;;;6.20;4.17;;;28.40;60.00;;;;;;6129109;23;20455;-82
2023/06/15 09:16:10;;;;;;;4.63;4.23;;;28.80;59.20;;;;;;6121503;23;20477;-85
2023/06/15 09:18:44;;;;;;;6.57;4.30;;;28.90;58.50;;;;;;6121701;23;20436;-84
2023/06/15 09:21:13;;;;;;;4.40;4.10;;;28.90;58.00;;;;;;6118862;23;20444;-83
2023/06/15 09:23:44;;;;;;;4.53;4.13;;;28.90;57.80;;;;;;6119206;23;20461;-84
2023/06/15 09:26:21;;;;;;;5.53;4.80;;;29.00;57.50;;;;;;6112687;23;20442;-87
2023/06/15 09:28:52;;;;;;;4.60;4.30;;;29.20;56.70;;;;;;6117201;23;20433;-82
2023/06/15 09:31:30;;;;;;;4.80;4.30;;;29.50;56.40;;;;;;6115237;23;20520;-82
2023/06/15 09:34:08;;;;;;;4.57;4.20;;;29.60;55.00;;;;;;6121087;23;20421;-81
2023/06/15 09:36:38;;;;;;;4.27;3.97;;;29.90;55.60;;;;;;6119126;23;20461;-82
2023/06/15 09:39:05;;;;;;;4.00;3.73;;;30.20;53.70;;;;;;6117501;23;20433;-82
2023/06/15 09:41:33;;;;;;;5.10;4.70;;;30.20;53.50;;;;;;6119751;23;20490;-79
2023/06/15 09:44:06;;;;;;;4.93;4.50;;;30.30;53.70;;;;;;6116270;23;20583;-84
2023/06/15 09:46:33;;;;;;;4.53;4.17;;;30.60;53.30;;;;;;6116878;23;20874;-85
2023/06/15 09:49:00;;;;;;;9.17;4.43;;;30.80;52.70;;;;;;6113606;23;20425;-81
2023/06/15 09:51:29;;;;;;;4.93;4.20;;;31.00;51.50;;;;;;6117114;23;20429;-86
2023/06/15 09:53:57;;;;;;;4.20;3.80;;;30.50;51.40;;;;;;6117317;23;20438;-81
2023/06/15 09:56:25;;;;;;;4.30;3.90;;;30.20;52.10;;;;;;6121463;23;20442;-91
2023/06/15 09:58:52;;;;;;;4.97;4.50;;;30.10;51.90;;;;;;6114218;23;20436;-89
2023/06/15 10:01:24;;;;;;;4.37;4.07;;;30.10;51.20;;;;;;6112824;23;20492;-89
2023/06/15 10:03:55;;;;;;;3.97;3.67;;;30.00;52.50;;;;;;6112992;23;20882;-78
2023/06/15 10:06:25;;;;;;;4.33;3.90;;;30.30;52.70;;;;;;6119609;23;20488;-78
2023/06/15 10:08:57;;;;;;;4.00;3.80;;;30.70;51.10;;;;;;6116164;23;20442;-77
2023/06/15 10:11:26;;;;;;;4.60;4.30;;;30.80;51.80;;;;;;6119388;23;20441;-75
2023/06/15 10:13:57;;;;;;;3.90;3.70;;;31.10;51.80;;;;;;6120091;23;20422;-73
2023/06/15 10:16:29;;;;;;;4.13;3.83;;;31.40;51.60;;;;;;6110638;23;20462;-83
2023/06/15 10:19:02;;;;;;;4.13;3.90;;;31.80;50.30;;;;;;6108263;23;20434;-89
2023/06/15 10:21:31;;;;;;;4.50;4.03;;;31.80;50.10;;;;;;6119916;23;20967;-89
2023/06/15 10:24:05;;;;;;;4.30;3.90;;;31.90;50.10;;;;;;6120046;23;20975;-87
2023/06/15 10:26:33;;;;;;;4.10;3.90;;;32.00;49.20;;;;;;6120343;23;20437;-89
2023/06/15 10:29:06;;;;;;;4.30;4.00;;;32.10;48.70;;;;;;6117026;23;20440;-89
2023/06/15 10:31:43;;;;;;;4.17;3.87;;;31.90;49.30;;;;;;6120538;23;20444;-88
2023/06/15 10:34:16;;;;;;;4.13;3.93;;;31.60;48.70;;;;;;6115367;23;20449;-88
2023/06/15 10:36:50;;;;;;;4.00;3.70;;;31.10;48.60;;;;;;6114569;23;20516;-88
2023/06/15 10:39:23;;;;;;;4.33;3.93;;;30.40;49.80;;;;;;6113069;23;20442;-88
2023/06/15 10:41:53;;;;;;;4.27;3.87;;;30.10;50.40;;;;;;6120355;23;20834;-88
2023/06/15 10:44:21;;;;;;;4.57;4.20;;;29.80;51.10;;;;;;6123287;23;20520;-88
2023/06/15 10:46:49;;;;;;;4.07;3.77;;;29.60;51.60;;;;;;6134823;23;20436;-89
2023/06/15 10:49:16;;;;;;;4.60;4.20;;;29.30;51.80;;;;;;6121216;23;20491;-88
2023/06/15 10:51:52;;;;;;;4.40;4.10;;;29.10;52.00;;;;;;6181102;23;20416;-89
2023/06/15 10:54:23;;;;;;;4.20;3.90;;;28.80;53.10;;;;;;6174924;23;20470;-88
2023/06/15 10:56:53;;;;;;;4.90;4.40;;;28.70;52.60;;;;;;6178757;23;20512;-88
2023/06/15 10:59:39;;;;;;;4.47;4.17;;;28.50;51.90;;;;;;6174046;23;20424;-90
2023/06/15 11:02:44;;;;;;;4.50;4.20;;;28.20;52.70;;;;;;6178775;23;21020;-89
2023/06/15 11:05:14;;;;;;;5.33;4.87;;;28.10;53.30;;;;;;6161267;23;20809;-89
2023/06/15 11:07:44;;;;;;;4.47;4.07;;;28.20;54.40;;;;;;6175441;23;20438;-89
2023/06/15 11:10:13;;;;;;;4.10;3.70;;;28.70;53.00;;;;;;6179879;23;20427;-89
2023/06/15 11:12:41;;;;;;;3.97;3.67;;;29.30;52.00;;;;;;6169717;23;20915;-89
2023/06/15 11:15:11;;;;;;;3.77;3.47;;;29.70;51.70;;;;;;6179131;23;20440;-89
2023/06/15 11:17:55;;;;;;;3.87;3.53;;;30.20;50.70;;;;;;6173145;23;20433;-89
2023/06/15 11:20:43;;;;;;;3.93;3.63;;;30.80;49.10;;;;;;6172807;23;20979;-89
2023/06/15 11:23:11;;;;;;;3.80;3.50;;;31.40;49.30;;;;;;6169616;23;20973;-89
2023/06/15 11:25:41;;;;;;;4.63;3.67;;;32.00;48.60;;;;;;6175449;23;20511;-88
2023/06/15 11:28:09;;;;;;;4.00;3.70;;;32.60;47.20;;;;;;6177243;23;20455;-89
2023/06/15 11:30:38;;;;;;;3.87;3.60;;;33.00;46.40;;;;;;6179065;23;20424;-89
2023/06/15 11:33:05;;;;;;;4.17;3.63;;;33.40;46.60;;;;;;6179306;23;20498;-89
2023/06/15 11:35:32;;;;;;;6.50;4.10;;;33.70;46.40;;;;;;6179490;23;20479;-89
2023/06/15 11:38:00;;;;;;;4.20;3.87;;;33.90;44.60;;;;;;6184762;23;20526;-88
2023/06/15 11:40:29;;;;;;;4.40;4.10;;;34.20;45.40;;;;;;6178509;23;20419;-88
2023/06/15 11:42:58;;;;;;;3.70;3.50;;;34.50;44.60;;;;;;6161921;23;20463;-89
2023/06/15 11:45:25;;;;;;;3.47;3.27;;;34.80;44.30;;;;;;6166527;23;20467;-90
2023/06/15 11:47:54;;;;;;;3.97;3.67;;;34.80;42.80;;;;;;6173478;23;20459;-89
2023/06/15 11:50:22;;;;;;;4.10;3.80;;;34.40;43.30;;;;;;6178698;23;20424;-90
2023/06/15 11:52:49;;;;;;;4.50;4.20;;;34.20;43.90;;;;;;6175981;23;20450;-89
2023/06/15 11:55:19;;;;;;;3.77;3.50;;;34.10;43.80;;;;;;6178115;23;20451;-89
2023/06/15 11:57:46;;;;;;;5.20;3.53;;;33.50;43.70;;;;;;6176553;23;20432;-88
2023/06/15 12:00:14;;;;;;;3.60;3.40;;;33.40;44.20;;;;;;6177212;23;20486;-89
2023/06/15 12:02:41;;;;;;;3.80;3.50;;;33.60;42.80;;;;;;6177966;23;20499;-89
2023/06/15 12:05:11;;;;;;;3.73;3.53;;;33.90;43.50;;;;;;6178798;23;20493;-89
2023/06/15 12:07:39;;;;;;;3.73;3.43;;;34.30;42.70;;;;;;6174422;23;20800;-89
2023/06/15 12:10:09;;;;;;;3.90;3.60;;;34.60;42.20;;;;;;6178172;23;20420;-90
2023/06/15 12:12:38;;;;;;;3.63;3.43;;;34.90;41.60;;;;;;6177664;23;20423;-89
2023/06/15 12:15:07;;;;;;;3.80;3.60;;;34.30;41.50;;;;;;6178383;23;20476;-89
2023/06/15 12:17:36;;;;;;;3.80;3.50;;;33.40;41.10;;;;;;6177384;23;20841;-89
2023/06/15 12:20:09;;;;;;;6.00;3.30;;;32.20;42.30;;;;;;6191771;23;20440;-89
2023/06/15 12:22:38;;;;;;;3.43;3.20;;;31.90;43.60;;;;;;6161324;23;20415;-89
2023/06/15 12:25:06;;;;;;;4.80;4.17;;;32.30;43.20;;;;;;6176457;23;20869;-89
2023/06/15 12:27:33;;;;;;;4.03;3.60;;;32.90;43.40;;;;;;6186645;23;20412;-88
2023/06/15 12:30:13;;;;;;;3.47;3.17;;;33.60;42.70;;;;;;6182204;23;20498;-88
2023/06/15 12:32:44;;;;;;;4.17;3.77;;;34.40;42.10;;;;;;6180512;23;20412;-88
2023/06/15 12:35:27;;;;;;;4.70;3.60;;;34.70;41.40;;;;;;6173758;23;20504;-87
2023/06/15 12:37:55;;;;;;;4.13;3.83;;;35.10;40.60;;;;;;6174966;23;20774;-88
2023/06/15 12:40:22;;;;;;;3.13;2.93;;;35.50;39.80;;;;;;6179745;23;20431;-87
2023/06/15 12:42:57;;;;;;;3.23;3.03;;;35.90;39.30;;;;;;6175860;23;20435;-88
2023/06/15 12:45:26;;;;;;;4.00;3.70;;;36.30;39.00;;;;;;6180791;23;20470;-88
2023/06/15 12:47:53;;;;;;;3.27;3.07;;;36.40;38.40;;;;;;6183486;23;20517;-89
2023/06/15 12:50:20;;;;;;;4.17;3.30;;;36.60;37.90;;;;;;6176813;23;20547;-91
2023/06/15 12:52:47;;;;;;;3.37;3.17;;;36.60;38.40;;;;;;6166123;23;20440;-89
2023/06/15 12:55:15;;;;;;;3.53;3.10;;;36.50;38.10;;;;;;6180055;23;20439;-84